MSS weather

Public forecast

Using degrees Fahrenheit for public forecast. Weather courtesy of forecast.io.

Current aviation weather report (METAR) for Massena International Richards Field

Retrieved 2020/08/14 19:14 UTC (33 minutes ago):

KMSS 141914Z AUTO 04009KT 10SM FEW002 27/16 A3013 RMK AO2 T02670156

Aviation forecast (TAF) for Massena International Richards Field

Retrieved 2020/08/14 18:22 UTC (1 hour ago):

TAF KMSS 141720Z 1418/1518 04011KT P6SM FEW050 FM150000 05004KT P6SM SKC